sensor_id;sensor_type;location;lat;lon;timestamp;P1;durP1;ratioP1;P2;durP2;ratioP2
49051;SDS011;34866;48.670;18.260;2023-04-29T00:01:18;15.05;;;7.57;;
49051;SDS011;34866;48.670;18.260;2023-04-29T00:03:43;16.50;;;7.60;;
49051;SDS011;34866;48.670;18.260;2023-04-29T00:06:09;15.57;;;7.40;;
49051;SDS011;34866;48.670;18.260;2023-04-29T00:08:37;16.30;;;8.15;;
49051;SDS011;34866;48.670;18.260;2023-04-29T00:11:03;11.38;;;6.60;;
49051;SDS011;34866;48.670;18.260;2023-04-29T00:13:31;11.88;;;6.47;;
49051;SDS011;34866;48.670;18.260;2023-04-29T00:15:56;13.95;;;6.95;;
49051;SDS011;34866;48.670;18.260;2023-04-29T00:18:22;14.95;;;7.55;;
49051;SDS011;34866;48.670;18.260;2023-04-29T00:20:48;13.40;;;7.32;;
49051;SDS011;34866;48.670;18.260;2023-04-29T00:23:14;16.02;;;8.20;;
49051;SDS011;34866;48.670;18.260;2023-04-29T00:25:39;15.23;;;7.75;;
49051;SDS011;34866;48.670;18.260;2023-04-29T00:28:05;13.02;;;7.43;;
49051;SDS011;34866;48.670;18.260;2023-04-29T00:30:32;14.75;;;6.90;;
49051;SDS011;34866;48.670;18.260;2023-04-29T00:32:58;15.05;;;7.05;;
49051;SDS011;34866;48.670;18.260;2023-04-29T00:35:31;13.77;;;6.88;;
49051;SDS011;34866;48.670;18.260;2023-04-29T00:37:57;12.65;;;7.20;;
49051;SDS011;34866;48.670;18.260;2023-04-29T00:40:33;17.23;;;7.03;;
49051;SDS011;34866;48.670;18.260;2023-04-29T00:43:00;12.05;;;6.80;;
49051;SDS011;34866;48.670;18.260;2023-04-29T00:45:25;11.55;;;6.68;;
49051;SDS011;34866;48.670;18.260;2023-04-29T00:47:52;15.75;;;7.53;;
49051;SDS011;34866;48.670;18.260;2023-04-29T00:50:18;15.00;;;7.43;;
49051;SDS011;34866;48.670;18.260;2023-04-29T00:52:45;14.27;;;7.28;;
49051;SDS011;34866;48.670;18.260;2023-04-29T00:55:12;14.32;;;7.93;;
49051;SDS011;34866;48.670;18.260;2023-04-29T00:57:39;17.33;;;7.95;;
49051;SDS011;34866;48.670;18.260;2023-04-29T01:00:05;14.32;;;8.05;;
49051;SDS011;34866;48.670;18.260;2023-04-29T01:02:31;16.25;;;8.63;;
49051;SDS011;34866;48.670;18.260;2023-04-29T01:04:57;14.20;;;7.13;;
49051;SDS011;34866;48.670;18.260;2023-04-29T01:10:34;14.13;;;7.95;;
49051;SDS011;34866;48.670;18.260;2023-04-29T01:13:10;12.60;;;7.07;;
49051;SDS011;34866;48.670;18.260;2023-04-29T01:15:46;13.10;;;6.47;;
49051;SDS011;34866;48.670;18.260;2023-04-29T01:18:45;13.68;;;7.20;;
49051;SDS011;34866;48.670;18.260;2023-04-29T01:21:17;17.80;;;7.35;;
49051;SDS011;34866;48.670;18.260;2023-04-29T01:23:44;15.95;;;8.55;;
49051;SDS011;34866;48.670;18.260;2023-04-29T01:26:09;14.40;;;8.48;;
49051;SDS011;34866;48.670;18.260;2023-04-29T01:28:49;15.70;;;8.23;;
49051;SDS011;34866;48.670;18.260;2023-04-29T01:37:09;12.25;;;7.43;;
49051;SDS011;34866;48.670;18.260;2023-04-29T01:42:39;13.23;;;7.25;;
49051;SDS011;34866;48.670;18.260;2023-04-29T01:45:13;14.18;;;6.93;;
49051;SDS011;34866;48.670;18.260;2023-04-29T01:47:43;16.25;;;7.50;;
49051;SDS011;34866;48.670;18.260;2023-04-29T01:50:10;13.93;;;6.22;;
49051;SDS011;34866;48.670;18.260;2023-04-29T01:52:36;14.50;;;6.90;;
49051;SDS011;34866;48.670;18.260;2023-04-29T01:55:02;15.57;;;7.35;;
49051;SDS011;34866;48.670;18.260;2023-04-29T01:57:28;14.55;;;7.32;;
49051;SDS011;34866;48.670;18.260;2023-04-29T01:59:54;14.60;;;7.32;;
49051;SDS011;34866;48.670;18.260;2023-04-29T02:02:21;16.58;;;8.48;;
49051;SDS011;34866;48.670;18.260;2023-04-29T02:04:47;12.95;;;7.20;;
49051;SDS011;34866;48.670;18.260;2023-04-29T02:07:14;18.70;;;7.40;;
49051;SDS011;34866;48.670;18.260;2023-04-29T02:09:41;14.07;;;7.68;;
49051;SDS011;34866;48.670;18.260;2023-04-29T02:12:07;15.52;;;8.43;;
49051;SDS011;34866;48.670;18.260;2023-04-29T02:14:33;17.52;;;8.40;;
49051;SDS011;34866;48.670;18.260;2023-04-29T02:17:00;21.58;;;8.20;;
49051;SDS011;34866;48.670;18.260;2023-04-29T02:19:25;15.55;;;7.65;;
49051;SDS011;34866;48.670;18.260;2023-04-29T02:21:51;14.55;;;6.80;;
49051;SDS011;34866;48.670;18.260;2023-04-29T02:24:17;17.55;;;8.38;;
49051;SDS011;34866;48.670;18.260;2023-04-29T02:26:42;15.35;;;7.18;;
49051;SDS011;34866;48.670;18.260;2023-04-29T02:29:08;17.20;;;7.43;;
49051;SDS011;34866;48.670;18.260;2023-04-29T02:31:34;13.52;;;7.30;;
49051;SDS011;34866;48.670;18.260;2023-04-29T02:34:05;12.40;;;6.90;;
49051;SDS011;34866;48.670;18.260;2023-04-29T02:36:31;13.93;;;7.90;;
49051;SDS011;34866;48.670;18.260;2023-04-29T02:38:56;14.48;;;7.72;;
49051;SDS011;34866;48.670;18.260;2023-04-29T02:41:22;11.30;;;7.03;;
49051;SDS011;34866;48.670;18.260;2023-04-29T02:43:49;19.98;;;6.70;;
49051;SDS011;34866;48.670;18.260;2023-04-29T02:46:15;12.48;;;6.25;;
49051;SDS011;34866;48.670;18.260;2023-04-29T02:48:42;12.70;;;7.40;;
49051;SDS011;34866;48.670;18.260;2023-04-29T02:51:08;14.55;;;7.10;;
49051;SDS011;34866;48.670;18.260;2023-04-29T02:53:34;13.35;;;6.47;;
49051;SDS011;34866;48.670;18.260;2023-04-29T02:56:00;18.73;;;7.13;;
49051;SDS011;34866;48.670;18.260;2023-04-29T02:58:26;13.32;;;6.10;;
49051;SDS011;34866;48.670;18.260;2023-04-29T03:00:51;10.10;;;6.03;;
49051;SDS011;34866;48.670;18.260;2023-04-29T03:03:17;15.20;;;7.25;;
49051;SDS011;34866;48.670;18.260;2023-04-29T03:05:43;16.77;;;6.95;;
49051;SDS011;34866;48.670;18.260;2023-04-29T03:08:09;13.23;;;7.93;;
49051;SDS011;34866;48.670;18.260;2023-04-29T03:10:35;11.20;;;6.60;;
49051;SDS011;34866;48.670;18.260;2023-04-29T03:13:01;16.83;;;7.13;;
49051;SDS011;34866;48.670;18.260;2023-04-29T03:15:27;16.67;;;6.97;;
49051;SDS011;34866;48.670;18.260;2023-04-29T03:17:53;16.15;;;7.53;;
49051;SDS011;34866;48.670;18.260;2023-04-29T03:20:19;14.55;;;7.22;;
49051;SDS011;34866;48.670;18.260;2023-04-29T03:22:45;15.07;;;6.85;;
49051;SDS011;34866;48.670;18.260;2023-04-29T03:25:11;16.08;;;7.07;;
49051;SDS011;34866;48.670;18.260;2023-04-29T03:27:37;15.35;;;7.50;;
49051;SDS011;34866;48.670;18.260;2023-04-29T03:30:03;16.20;;;7.38;;
49051;SDS011;34866;48.670;18.260;2023-04-29T03:32:31;12.48;;;6.80;;
49051;SDS011;34866;48.670;18.260;2023-04-29T03:34:56;20.20;;;8.20;;
49051;SDS011;34866;48.670;18.260;2023-04-29T03:37:22;16.35;;;8.63;;
49051;SDS011;34866;48.670;18.260;2023-04-29T03:39:48;17.63;;;8.35;;
49051;SDS011;34866;48.670;18.260;2023-04-29T03:42:13;14.02;;;8.23;;
49051;SDS011;34866;48.670;18.260;2023-04-29T03:44:39;18.42;;;8.95;;
49051;SDS011;34866;48.670;18.260;2023-04-29T03:47:05;22.80;;;9.25;;
49051;SDS011;34866;48.670;18.260;2023-04-29T03:49:30;18.17;;;8.77;;
49051;SDS011;34866;48.670;18.260;2023-04-29T03:51:56;20.88;;;8.25;;
49051;SDS011;34866;48.670;18.260;2023-04-29T03:54:22;15.25;;;8.23;;
49051;SDS011;34866;48.670;18.260;2023-04-29T03:56:48;13.93;;;7.35;;
49051;SDS011;34866;48.670;18.260;2023-04-29T03:59:14;15.40;;;7.65;;
49051;SDS011;34866;48.670;18.260;2023-04-29T04:01:39;15.57;;;8.75;;
49051;SDS011;34866;48.670;18.260;2023-04-29T04:04:05;17.65;;;8.77;;
49051;SDS011;34866;48.670;18.260;2023-04-29T04:06:30;13.88;;;8.27;;
49051;SDS011;34866;48.670;18.260;2023-04-29T04:08:58;17.30;;;8.63;;
49051;SDS011;34866;48.670;18.260;2023-04-29T04:11:24;19.67;;;9.38;;
49051;SDS011;34866;48.670;18.260;2023-04-29T04:13:50;20.10;;;8.55;;
49051;SDS011;34866;48.670;18.260;2023-04-29T04:16:16;15.27;;;7.90;;
49051;SDS011;34866;48.670;18.260;2023-04-29T04:18:41;14.35;;;8.30;;
49051;SDS011;34866;48.670;18.260;2023-04-29T04:21:07;11.27;;;7.00;;
49051;SDS011;34866;48.670;18.260;2023-04-29T04:23:34;18.42;;;8.45;;
49051;SDS011;34866;48.670;18.260;2023-04-29T04:26:00;15.95;;;7.95;;
49051;SDS011;34866;48.670;18.260;2023-04-29T04:28:26;14.52;;;8.35;;
49051;SDS011;34866;48.670;18.260;2023-04-29T04:30:52;16.30;;;8.70;;
49051;SDS011;34866;48.670;18.260;2023-04-29T04:33:18;15.98;;;8.48;;
49051;SDS011;34866;48.670;18.260;2023-04-29T04:35:44;16.15;;;9.10;;
49051;SDS011;34866;48.670;18.260;2023-04-29T04:38:13;16.73;;;8.60;;
49051;SDS011;34866;48.670;18.260;2023-04-29T04:40:42;18.48;;;8.80;;
49051;SDS011;34866;48.670;18.260;2023-04-29T04:43:08;21.30;;;8.48;;
49051;SDS011;34866;48.670;18.260;2023-04-29T04:45:34;15.15;;;8.40;;
49051;SDS011;34866;48.670;18.260;2023-04-29T04:48:01;15.77;;;8.70;;
49051;SDS011;34866;48.670;18.260;2023-04-29T04:50:28;19.73;;;8.60;;
49051;SDS011;34866;48.670;18.260;2023-04-29T04:52:54;13.10;;;7.63;;
49051;SDS011;34866;48.670;18.260;2023-04-29T04:55:27;12.85;;;8.18;;
49051;SDS011;34866;48.670;18.260;2023-04-29T04:57:53;20.60;;;8.75;;
49051;SDS011;34866;48.670;18.260;2023-04-29T05:00:19;17.05;;;8.55;;
49051;SDS011;34866;48.670;18.260;2023-04-29T05:02:46;13.70;;;8.05;;
49051;SDS011;34866;48.670;18.260;2023-04-29T05:05:12;14.93;;;7.68;;
49051;SDS011;34866;48.670;18.260;2023-04-29T05:07:38;16.55;;;9.32;;
49051;SDS011;34866;48.670;18.260;2023-04-29T05:10:04;19.58;;;9.20;;
49051;SDS011;34866;48.670;18.260;2023-04-29T05:12:31;18.48;;;8.68;;
49051;SDS011;34866;48.670;18.260;2023-04-29T05:14:57;32.05;;;13.38;;
49051;SDS011;34866;48.670;18.260;2023-04-29T05:17:23;23.23;;;12.02;;
49051;SDS011;34866;48.670;18.260;2023-04-29T05:19:48;16.65;;;7.22;;
49051;SDS011;34866;48.670;18.260;2023-04-29T05:22:14;19.27;;;6.20;;
49051;SDS011;34866;48.670;18.260;2023-04-29T05:24:40;16.63;;;6.47;;
49051;SDS011;34866;48.670;18.260;2023-04-29T05:27:06;12.73;;;6.78;;
49051;SDS011;34866;48.670;18.260;2023-04-29T05:29:31;19.13;;;5.60;;
49051;SDS011;34866;48.670;18.260;2023-04-29T05:31:57;19.35;;;6.30;;
49051;SDS011;34866;48.670;18.260;2023-04-29T05:34:25;15.00;;;5.65;;
49051;SDS011;34866;48.670;18.260;2023-04-29T05:36:51;10.32;;;5.15;;
49051;SDS011;34866;48.670;18.260;2023-04-29T05:39:17;9.73;;;5.10;;
49051;SDS011;34866;48.670;18.260;2023-04-29T05:41:44;13.80;;;5.35;;
49051;SDS011;34866;48.670;18.260;2023-04-29T05:44:10;15.38;;;5.45;;
49051;SDS011;34866;48.670;18.260;2023-04-29T05:46:36;13.95;;;5.18;;
49051;SDS011;34866;48.670;18.260;2023-04-29T05:49:01;11.77;;;4.88;;
49051;SDS011;34866;48.670;18.260;2023-04-29T05:51:27;17.10;;;5.35;;
49051;SDS011;34866;48.670;18.260;2023-04-29T05:53:53;12.23;;;4.25;;
49051;SDS011;34866;48.670;18.260;2023-04-29T05:56:19;8.40;;;5.13;;
49051;SDS011;34866;48.670;18.260;2023-04-29T05:58:46;8.73;;;4.55;;
49051;SDS011;34866;48.670;18.260;2023-04-29T06:01:11;15.68;;;4.55;;
49051;SDS011;34866;48.670;18.260;2023-04-29T06:03:37;11.70;;;4.75;;
49051;SDS011;34866;48.670;18.260;2023-04-29T06:06:03;10.98;;;5.07;;
49051;SDS011;34866;48.670;18.260;2023-04-29T06:08:29;16.92;;;5.40;;
49051;SDS011;34866;48.670;18.260;2023-04-29T06:10:55;13.70;;;5.35;;
49051;SDS011;34866;48.670;18.260;2023-04-29T06:13:20;19.17;;;5.07;;
49051;SDS011;34866;48.670;18.260;2023-04-29T06:15:46;11.40;;;4.72;;
49051;SDS011;34866;48.670;18.260;2023-04-29T06:18:13;13.05;;;5.22;;
49051;SDS011;34866;48.670;18.260;2023-04-29T06:20:38;13.73;;;4.70;;
49051;SDS011;34866;48.670;18.260;2023-04-29T06:23:04;11.35;;;4.53;;
49051;SDS011;34866;48.670;18.260;2023-04-29T06:25:31;10.27;;;4.80;;
49051;SDS011;34866;48.670;18.260;2023-04-29T06:27:57;11.38;;;5.22;;
49051;SDS011;34866;48.670;18.260;2023-04-29T06:30:22;9.93;;;4.38;;
49051;SDS011;34866;48.670;18.260;2023-04-29T06:32:48;9.10;;;4.60;;
49051;SDS011;34866;48.670;18.260;2023-04-29T06:35:14;9.98;;;5.18;;
49051;SDS011;34866;48.670;18.260;2023-04-29T06:37:46;7.95;;;4.50;;
49051;SDS011;34866;48.670;18.260;2023-04-29T06:40:12;9.75;;;4.30;;
49051;SDS011;34866;48.670;18.260;2023-04-29T06:42:38;13.30;;;4.40;;
49051;SDS011;34866;48.670;18.260;2023-04-29T06:45:04;11.10;;;4.82;;
49051;SDS011;34866;48.670;18.260;2023-04-29T06:47:30;12.65;;;4.72;;
49051;SDS011;34866;48.670;18.260;2023-04-29T06:49:57;11.48;;;5.03;;
49051;SDS011;34866;48.670;18.260;2023-04-29T06:52:22;13.07;;;4.72;;
49051;SDS011;34866;48.670;18.260;2023-04-29T06:54:48;12.40;;;5.30;;
49051;SDS011;34866;48.670;18.260;2023-04-29T06:57:13;10.75;;;5.13;;
49051;SDS011;34866;48.670;18.260;2023-04-29T06:59:39;10.93;;;4.88;;
49051;SDS011;34866;48.670;18.260;2023-04-29T07:02:06;17.63;;;6.07;;
49051;SDS011;34866;48.670;18.260;2023-04-29T07:04:32;8.52;;;4.82;;
49051;SDS011;34866;48.670;18.260;2023-04-29T07:06:58;12.10;;;5.57;;
49051;SDS011;34866;48.670;18.260;2023-04-29T07:09:24;18.67;;;5.10;;
49051;SDS011;34866;48.670;18.260;2023-04-29T07:11:51;14.73;;;5.18;;
49051;SDS011;34866;48.670;18.260;2023-04-29T07:14:18;13.02;;;6.03;;
49051;SDS011;34866;48.670;18.260;2023-04-29T07:16:43;11.43;;;6.18;;
49051;SDS011;34866;48.670;18.260;2023-04-29T07:19:09;12.25;;;5.72;;
49051;SDS011;34866;48.670;18.260;2023-04-29T07:21:36;8.13;;;4.55;;
49051;SDS011;34866;48.670;18.260;2023-04-29T07:24:02;10.85;;;5.03;;
49051;SDS011;34866;48.670;18.260;2023-04-29T07:26:29;10.13;;;5.22;;
49051;SDS011;34866;48.670;18.260;2023-04-29T07:28:54;10.45;;;5.40;;
49051;SDS011;34866;48.670;18.260;2023-04-29T07:31:20;9.43;;;4.43;;
49051;SDS011;34866;48.670;18.260;2023-04-29T07:33:46;15.07;;;5.60;;
49051;SDS011;34866;48.670;18.260;2023-04-29T07:36:12;11.98;;;5.13;;
49051;SDS011;34866;48.670;18.260;2023-04-29T07:38:38;13.70;;;5.53;;
49051;SDS011;34866;48.670;18.260;2023-04-29T07:41:04;8.98;;;5.25;;
49051;SDS011;34866;48.670;18.260;2023-04-29T07:43:31;6.93;;;3.85;;
49051;SDS011;34866;48.670;18.260;2023-04-29T07:45:56;17.67;;;5.28;;
49051;SDS011;34866;48.670;18.260;2023-04-29T07:48:22;12.23;;;5.10;;
49051;SDS011;34866;48.670;18.260;2023-04-29T07:50:48;11.80;;;5.28;;
49051;SDS011;34866;48.670;18.260;2023-04-29T07:53:13;9.68;;;5.40;;
49051;SDS011;34866;48.670;18.260;2023-04-29T07:55:40;9.77;;;4.97;;
49051;SDS011;34866;48.670;18.260;2023-04-29T07:58:06;11.00;;;4.93;;
49051;SDS011;34866;48.670;18.260;2023-04-29T08:00:31;12.60;;;5.05;;
49051;SDS011;34866;48.670;18.260;2023-04-29T08:02:57;9.23;;;4.72;;
49051;SDS011;34866;48.670;18.260;2023-04-29T08:05:23;15.38;;;4.75;;
49051;SDS011;34866;48.670;18.260;2023-04-29T08:07:50;13.93;;;5.28;;
49051;SDS011;34866;48.670;18.260;2023-04-29T08:10:16;9.95;;;5.38;;
49051;SDS011;34866;48.670;18.260;2023-04-29T08:12:46;8.45;;;4.45;;
49051;SDS011;34866;48.670;18.260;2023-04-29T08:15:12;11.10;;;5.03;;
49051;SDS011;34866;48.670;18.260;2023-04-29T08:17:38;10.13;;;5.13;;
49051;SDS011;34866;48.670;18.260;2023-04-29T08:20:04;12.52;;;5.05;;
49051;SDS011;34866;48.670;18.260;2023-04-29T08:22:32;12.30;;;4.80;;
49051;SDS011;34866;48.670;18.260;2023-04-29T08:24:59;10.38;;;5.07;;
49051;SDS011;34866;48.670;18.260;2023-04-29T08:27:27;14.82;;;4.93;;
49051;SDS011;34866;48.670;18.260;2023-04-29T08:29:52;12.27;;;5.45;;
49051;SDS011;34866;48.670;18.260;2023-04-29T08:32:18;10.93;;;5.60;;
49051;SDS011;34866;48.670;18.260;2023-04-29T08:34:44;9.88;;;5.10;;
49051;SDS011;34866;48.670;18.260;2023-04-29T08:37:10;10.65;;;5.93;;
49051;SDS011;34866;48.670;18.260;2023-04-29T08:39:35;10.40;;;5.43;;
49051;SDS011;34866;48.670;18.260;2023-04-29T08:42:08;9.90;;;5.28;;
49051;SDS011;34866;48.670;18.260;2023-04-29T08:44:34;15.00;;;5.97;;
49051;SDS011;34866;48.670;18.260;2023-04-29T08:47:01;11.02;;;5.50;;
49051;SDS011;34866;48.670;18.260;2023-04-29T08:49:28;10.77;;;5.70;;
49051;SDS011;34866;48.670;18.260;2023-04-29T08:51:56;10.00;;;5.50;;
49051;SDS011;34866;48.670;18.260;2023-04-29T08:54:22;12.77;;;6.13;;
49051;SDS011;34866;48.670;18.260;2023-04-29T08:56:48;12.13;;;5.53;;
49051;SDS011;34866;48.670;18.260;2023-04-29T08:59:16;14.50;;;7.10;;
49051;SDS011;34866;48.670;18.260;2023-04-29T09:01:42;17.83;;;6.22;;
49051;SDS011;34866;48.670;18.260;2023-04-29T09:06:46;17.52;;;5.50;;
49051;SDS011;34866;48.670;18.260;2023-04-29T09:09:13;10.18;;;5.40;;
49051;SDS011;34866;48.670;18.260;2023-04-29T09:11:40;12.02;;;5.60;;
49051;SDS011;34866;48.670;18.260;2023-04-29T09:14:05;10.88;;;5.53;;
49051;SDS011;34866;48.670;18.260;2023-04-29T09:16:36;11.02;;;5.30;;
49051;SDS011;34866;48.670;18.260;2023-04-29T09:19:02;10.98;;;5.72;;
49051;SDS011;34866;48.670;18.260;2023-04-29T09:21:28;10.77;;;5.22;;
49051;SDS011;34866;48.670;18.260;2023-04-29T09:24:01;11.18;;;6.05;;
49051;SDS011;34866;48.670;18.260;2023-04-29T09:26:48;10.27;;;5.85;;
49051;SDS011;34866;48.670;18.260;2023-04-29T09:29:13;9.75;;;5.65;;
49051;SDS011;34866;48.670;18.260;2023-04-29T09:31:40;9.40;;;4.85;;
49051;SDS011;34866;48.670;18.260;2023-04-29T09:34:06;12.45;;;5.65;;
49051;SDS011;34866;48.670;18.260;2023-04-29T09:36:53;9.50;;;5.22;;
49051;SDS011;34866;48.670;18.260;2023-04-29T09:39:23;13.27;;;5.35;;
49051;SDS011;34866;48.670;18.260;2023-04-29T09:44:18;14.88;;;5.78;;
49051;SDS011;34866;48.670;18.260;2023-04-29T09:51:53;10.55;;;4.90;;
49051;SDS011;34866;48.670;18.260;2023-04-29T09:54:21;10.65;;;4.82;;
49051;SDS011;34866;48.670;18.260;2023-04-29T09:56:48;13.15;;;5.25;;
49051;SDS011;34866;48.670;18.260;2023-04-29T09:59:19;10.60;;;4.68;;
49051;SDS011;34866;48.670;18.260;2023-04-29T10:01:53;13.23;;;4.00;;
49051;SDS011;34866;48.670;18.260;2023-04-29T10:04:20;10.60;;;5.30;;
49051;SDS011;34866;48.670;18.260;2023-04-29T10:06:48;10.25;;;4.10;;
49051;SDS011;34866;48.670;18.260;2023-04-29T10:09:16;11.70;;;4.60;;
49051;SDS011;34866;48.670;18.260;2023-04-29T10:11:43;7.88;;;4.38;;
49051;SDS011;34866;48.670;18.260;2023-04-29T10:14:20;7.60;;;4.22;;
49051;SDS011;34866;48.670;18.260;2023-04-29T10:19:46;7.57;;;4.20;;
49051;SDS011;34866;48.670;18.260;2023-04-29T10:22:32;10.02;;;4.30;;
49051;SDS011;34866;48.670;18.260;2023-04-29T10:25:10;6.47;;;3.67;;
49051;SDS011;34866;48.670;18.260;2023-04-29T10:27:36;17.08;;;3.65;;
49051;SDS011;34866;48.670;18.260;2023-04-29T10:30:04;8.73;;;4.35;;
49051;SDS011;34866;48.670;18.260;2023-04-29T10:32:33;20.02;;;6.85;;
49051;SDS011;34866;48.670;18.260;2023-04-29T10:35:00;21.38;;;5.97;;
49051;SDS011;34866;48.670;18.260;2023-04-29T10:37:27;10.48;;;4.82;;
49051;SDS011;34866;48.670;18.260;2023-04-29T10:42:48;7.68;;;4.28;;
49051;SDS011;34866;48.670;18.260;2023-04-29T10:50:33;6.60;;;3.45;;
49051;SDS011;34866;48.670;18.260;2023-04-29T10:53:06;7.15;;;3.70;;
49051;SDS011;34866;48.670;18.260;2023-04-29T10:55:36;9.95;;;4.60;;
49051;SDS011;34866;48.670;18.260;2023-04-29T10:58:05;9.95;;;4.15;;
49051;SDS011;34866;48.670;18.260;2023-04-29T11:01:06;12.35;;;4.05;;
49051;SDS011;34866;48.670;18.260;2023-04-29T11:03:48;8.05;;;3.60;;
49051;SDS011;34866;48.670;18.260;2023-04-29T11:06:18;8.20;;;3.78;;
49051;SDS011;34866;48.670;18.260;2023-04-29T11:08:46;11.32;;;3.90;;
49051;SDS011;34866;48.670;18.260;2023-04-29T11:11:14;6.15;;;3.55;;
49051;SDS011;34866;48.670;18.260;2023-04-29T11:13:40;8.15;;;4.65;;
49051;SDS011;34866;48.670;18.260;2023-04-29T11:16:20;8.60;;;3.95;;
49051;SDS011;34866;48.670;18.260;2023-04-29T11:19:06;7.07;;;3.40;;
49051;SDS011;34866;48.670;18.260;2023-04-29T11:21:36;9.10;;;4.85;;
49051;SDS011;34866;48.670;18.260;2023-04-29T11:24:02;10.73;;;4.10;;
49051;SDS011;34866;48.670;18.260;2023-04-29T11:26:30;9.45;;;4.35;;
49051;SDS011;34866;48.670;18.260;2023-04-29T11:28:58;6.18;;;4.10;;
49051;SDS011;34866;48.670;18.260;2023-04-29T11:31:29;9.55;;;4.15;;
49051;SDS011;34866;48.670;18.260;2023-04-29T11:33:58;7.22;;;4.00;;
49051;SDS011;34866;48.670;18.260;2023-04-29T11:36:24;8.38;;;4.07;;
49051;SDS011;34866;48.670;18.260;2023-04-29T11:38:51;7.93;;;4.13;;
49051;SDS011;34866;48.670;18.260;2023-04-29T11:41:17;10.70;;;4.47;;
49051;SDS011;34866;48.670;18.260;2023-04-29T11:43:53;7.22;;;3.88;;
49051;SDS011;34866;48.670;18.260;2023-04-29T11:46:20;7.05;;;4.00;;
49051;SDS011;34866;48.670;18.260;2023-04-29T11:48:46;23.25;;;7.75;;
49051;SDS011;34866;48.670;18.260;2023-04-29T11:51:13;12.60;;;4.15;;
49051;SDS011;34866;48.670;18.260;2023-04-29T11:53:40;67.30;;;15.55;;
49051;SDS011;34866;48.670;18.260;2023-04-29T11:56:07;11.85;;;5.45;;
49051;SDS011;34866;48.670;18.260;2023-04-29T11:58:34;9.85;;;4.85;;
49051;SDS011;34866;48.670;18.260;2023-04-29T12:01:00;12.13;;;4.47;;
49051;SDS011;34866;48.670;18.260;2023-04-29T12:03:28;8.15;;;4.90;;
49051;SDS011;34866;48.670;18.260;2023-04-29T12:05:55;11.63;;;5.70;;
49051;SDS011;34866;48.670;18.260;2023-04-29T12:08:22;11.18;;;5.28;;
49051;SDS011;34866;48.670;18.260;2023-04-29T12:10:50;12.10;;;5.15;;
49051;SDS011;34866;48.670;18.260;2023-04-29T12:13:17;8.35;;;4.88;;
49051;SDS011;34866;48.670;18.260;2023-04-29T12:15:44;9.98;;;4.07;;
49051;SDS011;34866;48.670;18.260;2023-04-29T12:18:14;9.18;;;5.78;;
49051;SDS011;34866;48.670;18.260;2023-04-29T12:20:42;8.00;;;5.03;;
49051;SDS011;34866;48.670;18.260;2023-04-29T12:23:11;9.88;;;4.43;;
49051;SDS011;34866;48.670;18.260;2023-04-29T12:25:37;7.90;;;4.80;;
49051;SDS011;34866;48.670;18.260;2023-04-29T12:28:10;9.52;;;5.28;;
49051;SDS011;34866;48.670;18.260;2023-04-29T12:30:39;10.05;;;5.47;;
49051;SDS011;34866;48.670;18.260;2023-04-29T12:33:08;7.32;;;4.93;;
49051;SDS011;34866;48.670;18.260;2023-04-29T12:35:34;9.38;;;5.35;;
49051;SDS011;34866;48.670;18.260;2023-04-29T12:38:01;10.43;;;5.35;;
49051;SDS011;34866;48.670;18.260;2023-04-29T12:40:27;11.95;;;5.65;;
49051;SDS011;34866;48.670;18.260;2023-04-29T12:42:53;18.27;;;5.88;;
49051;SDS011;34866;48.670;18.260;2023-04-29T12:45:32;8.25;;;4.53;;
49051;SDS011;34866;48.670;18.260;2023-04-29T12:47:59;10.60;;;5.90;;
49051;SDS011;34866;48.670;18.260;2023-04-29T12:50:29;8.95;;;5.25;;
49051;SDS011;34866;48.670;18.260;2023-04-29T12:52:57;11.52;;;5.05;;
49051;SDS011;34866;48.670;18.260;2023-04-29T12:55:23;13.55;;;5.53;;
49051;SDS011;34866;48.670;18.260;2023-04-29T12:57:49;56.83;;;16.70;;
49051;SDS011;34866;48.670;18.260;2023-04-29T13:00:15;22.65;;;10.00;;
49051;SDS011;34866;48.670;18.260;2023-04-29T13:02:41;13.52;;;5.85;;
49051;SDS011;34866;48.670;18.260;2023-04-29T13:05:07;10.77;;;6.28;;
49051;SDS011;34866;48.670;18.260;2023-04-29T13:07:32;14.18;;;6.00;;
49051;SDS011;34866;48.670;18.260;2023-04-29T13:09:59;9.63;;;5.70;;
49051;SDS011;34866;48.670;18.260;2023-04-29T13:12:24;11.88;;;5.03;;
49051;SDS011;34866;48.670;18.260;2023-04-29T13:14:51;12.20;;;6.03;;
49051;SDS011;34866;48.670;18.260;2023-04-29T13:17:17;15.82;;;6.65;;
49051;SDS011;34866;48.670;18.260;2023-04-29T13:19:42;10.27;;;7.25;;
49051;SDS011;34866;48.670;18.260;2023-04-29T13:22:09;10.15;;;6.07;;
49051;SDS011;34866;48.670;18.260;2023-04-29T13:24:35;10.02;;;5.10;;
49051;SDS011;34866;48.670;18.260;2023-04-29T13:27:00;15.18;;;7.95;;
49051;SDS011;34866;48.670;18.260;2023-04-29T13:29:28;10.02;;;6.25;;
49051;SDS011;34866;48.670;18.260;2023-04-29T13:31:53;12.40;;;6.70;;
49051;SDS011;34866;48.670;18.260;2023-04-29T13:34:20;15.13;;;6.18;;
49051;SDS011;34866;48.670;18.260;2023-04-29T13:36:46;8.73;;;5.50;;
49051;SDS011;34866;48.670;18.260;2023-04-29T13:39:12;18.90;;;6.78;;
49051;SDS011;34866;48.670;18.260;2023-04-29T13:41:37;10.18;;;5.78;;
49051;SDS011;34866;48.670;18.260;2023-04-29T13:44:04;12.52;;;6.60;;
49051;SDS011;34866;48.670;18.260;2023-04-29T13:46:30;14.07;;;5.45;;
49051;SDS011;34866;48.670;18.260;2023-04-29T13:48:56;11.60;;;6.50;;
49051;SDS011;34866;48.670;18.260;2023-04-29T13:51:22;9.10;;;5.25;;
49051;SDS011;34866;48.670;18.260;2023-04-29T13:53:48;9.57;;;5.13;;
49051;SDS011;34866;48.670;18.260;2023-04-29T13:56:14;12.25;;;5.68;;
49051;SDS011;34866;48.670;18.260;2023-04-29T13:58:40;16.17;;;6.05;;
49051;SDS011;34866;48.670;18.260;2023-04-29T14:01:07;11.80;;;6.88;;
49051;SDS011;34866;48.670;18.260;2023-04-29T14:03:33;12.13;;;5.88;;
49051;SDS011;34866;48.670;18.260;2023-04-29T14:06:00;11.65;;;6.25;;
49051;SDS011;34866;48.670;18.260;2023-04-29T14:08:25;8.50;;;4.80;;
49051;SDS011;34866;48.670;18.260;2023-04-29T14:10:51;11.55;;;5.85;;
49051;SDS011;34866;48.670;18.260;2023-04-29T14:13:17;10.57;;;5.68;;
49051;SDS011;34866;48.670;18.260;2023-04-29T14:15:50;12.32;;;5.03;;
49051;SDS011;34866;48.670;18.260;2023-04-29T14:18:16;12.00;;;5.05;;
49051;SDS011;34866;48.670;18.260;2023-04-29T14:20:48;9.77;;;5.20;;
49051;SDS011;34866;48.670;18.260;2023-04-29T14:23:20;12.45;;;6.35;;
49051;SDS011;34866;48.670;18.260;2023-04-29T14:25:46;9.35;;;5.40;;
49051;SDS011;34866;48.670;18.260;2023-04-29T14:28:12;11.80;;;6.30;;
49051;SDS011;34866;48.670;18.260;2023-04-29T14:30:37;11.32;;;5.53;;
49051;SDS011;34866;48.670;18.260;2023-04-29T14:33:03;10.73;;;5.60;;
49051;SDS011;34866;48.670;18.260;2023-04-29T14:35:29;11.63;;;5.05;;
49051;SDS011;34866;48.670;18.260;2023-04-29T14:37:55;10.05;;;5.95;;
49051;SDS011;34866;48.670;18.260;2023-04-29T14:40:21;12.73;;;5.50;;
49051;SDS011;34866;48.670;18.260;2023-04-29T14:42:47;10.13;;;5.95;;
49051;SDS011;34866;48.670;18.260;2023-04-29T14:45:12;11.25;;;5.45;;
49051;SDS011;34866;48.670;18.260;2023-04-29T14:47:38;12.25;;;5.63;;
49051;SDS011;34866;48.670;18.260;2023-04-29T14:50:04;14.63;;;5.85;;
49051;SDS011;34866;48.670;18.260;2023-04-29T14:52:30;12.10;;;5.70;;
49051;SDS011;34866;48.670;18.260;2023-04-29T14:54:55;9.95;;;5.63;;
49051;SDS011;34866;48.670;18.260;2023-04-29T14:57:21;13.63;;;5.97;;